Time;durP1;ratioP1;P1;durP2;ratioP2;P2;SDS_P1;SDS_P2;PMS_P1;PMS_P2;Temp;Humidity;BMP_temperature;BMP_pressure;BME280_temperature;BME280_humidity;BME280_pressure;Samples;Min_cycle;Max_cycle;Signal;HPM_P1;HPM_P2
2021/05/22 00:00:18;;;;;;;8.48;1.90;;;;;;;9.12;74.45;99612.84;5089828;28;20135;-55
2021/05/22 00:02:45;;;;;;;11.10;1.95;;;;;;;9.12;74.30;99607.31;5100609;28;20044;-55
2021/05/22 00:05:13;;;;;;;9.02;2.30;;;;;;;9.15;74.30;99608.53;5090981;28;20048;-56
2021/05/22 00:07:39;;;;;;;8.35;1.95;;;;;;;9.11;74.39;99613.97;5104064;28;20074;-51
2021/05/22 00:10:11;;;;;;;6.97;1.55;;;;;;;9.08;74.24;99619.47;5090591;28;20055;-52
2021/05/22 00:12:39;;;;;;;8.82;1.80;;;;;;;9.08;74.35;99620.22;5107709;28;20079;-57
2021/05/22 00:15:09;;;;;;;8.13;2.05;;;;;;;9.06;74.42;99616.22;5094563;28;20047;-56
2021/05/22 00:17:35;;;;;;;10.07;2.28;;;;;;;9.09;74.42;99604.47;5096362;28;20460;-56
2021/05/22 00:20:04;;;;;;;7.65;1.83;;;;;;;9.09;74.47;99621.84;5100150;28;20047;-56
2021/05/22 00:22:31;;;;;;;6.00;1.77;;;;;;;9.07;74.56;99623.38;5095203;28;20086;-53
2021/05/22 00:24:59;;;;;;;9.30;2.08;;;;;;;9.00;74.42;99624.00;5095297;28;20569;-56
2021/05/22 00:27:26;;;;;;;7.70;2.78;;;;;;;8.97;74.48;99630.28;5104992;28;20047;-53
2021/05/22 00:29:52;;;;;;;6.55;1.98;;;;;;;8.93;74.46;99629.38;5098793;28;20039;-53
2021/05/22 00:32:19;;;;;;;10.45;2.55;;;;;;;8.89;74.46;99639.56;5084115;28;20056;-56
2021/05/22 00:34:46;;;;;;;11.68;2.45;;;;;;;8.88;74.24;99637.94;5090729;28;20533;-56
2021/05/22 00:37:13;;;;;;;11.20;1.60;;;;;;;8.86;73.99;99643.03;5103487;28;20082;-54
2021/05/22 00:39:43;;;;;;;8.05;2.10;;;;;;;8.89;73.93;99639.56;5091021;28;20448;-56
2021/05/22 00:42:10;;;;;;;6.65;2.50;;;;;;;8.91;73.90;99637.22;5091582;28;20036;-54
2021/05/22 00:45:06;;;;;;;7.93;1.67;;;;;;;8.86;73.54;99644.97;5101093;28;20895;-56
2021/05/22 00:47:33;;;;;;;6.05;1.60;;;;;;;8.88;73.69;99648.97;5087097;28;20126;-54
2021/05/22 00:50:01;;;;;;;11.43;2.10;;;;;;;8.85;73.57;99655.22;5111866;28;20085;-54
2021/05/22 00:52:28;;;;;;;10.55;1.50;;;;;;;8.76;73.47;99646.34;5090925;28;20089;-55
2021/05/22 00:54:56;;;;;;;5.93;1.50;;;;;;;8.71;73.42;99654.88;5091990;28;20052;-56
2021/05/22 00:57:23;;;;;;;9.30;2.08;;;;;;;8.69;73.43;99650.88;5093337;28;20078;-54
2021/05/22 00:59:50;;;;;;;10.27;2.08;;;;;;;8.68;73.36;99666.66;5112077;28;20504;-55
2021/05/22 01:02:23;;;;;;;9.65;1.73;;;;;;;8.65;73.17;99664.63;5082817;28;20052;-56
2021/05/22 01:04:56;;;;;;;12.55;2.63;;;;;;;8.64;73.19;99663.00;5082525;28;20386;-56
2021/05/22 01:07:23;;;;;;;;;;;;;;;8.63;73.44;99669.66;5109237;28;20078;-54
2021/05/22 01:09:54;;;;;;;15.23;2.90;;;;;;;8.68;73.48;99655.63;5110546;28;20350;-58
2021/05/22 01:12:26;;;;;;;8.02;2.03;;;;;;;8.70;73.76;99661.59;5094234;28;20093;-53
2021/05/22 01:15:10;;;;;;;6.00;1.90;;;;;;;8.70;73.83;99656.06;5110407;28;20576;-58
2021/05/22 01:17:41;;;;;;;7.68;2.20;;;;;;;8.73;73.75;99658.09;5094493;28;20044;-58
2021/05/22 01:20:08;;;;;;;6.70;2.33;;;;;;;8.74;73.75;99664.41;5091242;28;20093;-55
2021/05/22 01:22:44;;;;;;;5.72;2.40;;;;;;;8.71;73.75;99665.16;5090001;28;20454;-51
2021/05/22 01:25:32;;;;;;;11.43;2.40;;;;;;;8.63;73.43;99658.63;5070785;28;20048;-56
2021/05/22 01:28:01;;;;;;;9.95;2.10;;;;;;;8.55;73.46;99657.66;5093779;28;20485;-56
2021/05/22 01:30:28;;;;;;;5.10;1.48;;;;;;;8.54;73.54;99660.81;5085868;28;20076;-58
2021/05/22 01:32:55;;;;;;;6.43;1.30;;;;;;;8.47;73.18;99661.41;5090896;28;20079;-58
2021/05/22 01:35:22;;;;;;;15.38;2.13;;;;;;;8.40;73.27;99660.44;5082330;28;20113;-57
2021/05/22 01:37:49;;;;;;;5.63;1.83;;;;;;;8.42;73.39;99663.66;5107580;28;20089;-58
2021/05/22 01:40:16;;;;;;;9.10;2.17;;;;;;;8.40;73.17;99671.47;5071543;28;20699;-56
2021/05/22 01:42:44;;;;;;;12.10;3.25;;;;;;;8.35;73.18;99663.47;5097383;28;20472;-56
2021/05/22 01:45:24;;;;;;;9.50;2.13;;;;;;;8.34;73.08;99670.94;5103386;28;20048;-57
2021/05/22 01:47:52;;;;;;;9.40;1.85;;;;;;;8.30;73.15;99678.34;5098560;28;20104;-54
2021/05/22 01:50:21;;;;;;;6.55;1.90;;;;;;;8.25;73.39;99666.75;5094199;28;20098;-57
2021/05/22 01:52:52;;;;;;;12.85;3.15;;;;;;;8.21;73.09;99679.63;5069844;28;20068;-54
2021/05/22 01:55:21;;;;;;;10.80;2.05;;;;;;;8.12;73.15;99681.78;5084021;28;20040;-58
2021/05/22 01:57:51;;;;;;;4.28;2.05;;;;;;;8.04;73.10;99689.06;5077728;28;20051;-56
2021/05/22 02:00:19;;;;;;;11.18;2.10;;;;;;;7.98;72.96;99688.50;5086974;28;20105;-55
2021/05/22 02:02:56;;;;;;;8.90;1.80;;;;;;;7.90;73.05;99697.75;5107599;28;20557;-55
2021/05/22 02:05:24;;;;;;;6.70;1.95;;;;;;;7.79;72.84;99699.41;5108957;28;20508;-55
2021/05/22 02:07:55;;;;;;;9.40;1.50;;;;;;;7.73;73.27;99698.06;5097818;28;20457;-53
2021/05/22 02:10:25;;;;;;;1.90;1.40;;;;;;;7.67;73.26;99704.19;5102309;28;20444;-56
2021/05/22 02:12:55;;;;;;;8.05;1.60;;;;;;;7.56;73.27;99698.38;5085406;28;20056;-54
2021/05/22 02:15:27;;;;;;;4.78;1.42;;;;;;;7.52;73.07;99697.44;5091270;28;20493;-56
2021/05/22 02:17:56;;;;;;;6.60;1.92;;;;;;;7.49;72.94;99709.19;5105736;28;20047;-54
2021/05/22 02:20:25;;;;;;;9.25;1.58;;;;;;;7.40;73.06;99713.22;5107958;28;20031;-53
2021/05/22 02:22:55;;;;;;;14.05;3.72;;;;;;;7.32;73.36;99703.97;5101768;28;20118;-54
2021/05/22 02:25:22;;;;;;;5.18;1.10;;;;;;;7.30;73.02;99709.03;5097368;28;20048;-54
2021/05/22 02:27:50;;;;;;;4.88;1.90;;;;;;;7.26;73.32;99710.84;5086152;28;20114;-55
2021/05/22 02:30:18;;;;;;;8.23;2.47;;;;;;;7.23;73.53;99717.03;5069740;28;20072;-54
2021/05/22 02:32:47;;;;;;;11.23;1.70;;;;;;;7.15;73.32;99721.53;5087674;28;20486;-57
2021/05/22 02:35:16;;;;;;;7.38;1.40;;;;;;;7.13;73.36;99717.53;5099843;28;20117;-54
2021/05/22 02:37:46;;;;;;;6.25;1.80;;;;;;;7.04;73.52;99714.13;5110306;28;20048;-54
2021/05/22 02:40:19;;;;;;;5.82;1.48;;;;;;;7.01;73.20;99723.06;5092485;28;20052;-51
2021/05/22 02:43:03;;;;;;;5.43;1.73;;;;;;;6.98;73.65;99716.31;5103707;28;20047;-56
2021/05/22 02:45:32;;;;;;;7.22;2.17;;;;;;;6.96;73.63;99718.63;5093495;28;20048;-56
2021/05/22 02:48:08;;;;;;;5.50;1.48;;;;;;;6.91;73.72;99721.56;5089341;28;20078;-53
2021/05/22 02:50:36;;;;;;;9.35;1.50;;;;;;;6.88;73.65;99715.97;5100377;28;20051;-56
2021/05/22 02:53:03;;;;;;;6.43;1.63;;;;;;;6.85;73.79;99724.91;5108453;28;20470;-54
2021/05/22 02:55:32;;;;;;;5.85;1.38;;;;;;;6.81;73.87;99724.00;5097568;28;20087;-53
2021/05/22 02:58:00;;;;;;;8.15;1.83;;;;;;;6.81;73.73;99727.53;5089978;28;20050;-55
2021/05/22 03:00:27;;;;;;;10.15;2.00;;;;;;;6.80;73.62;99733.41;5104697;28;20500;-54
2021/05/22 03:02:55;;;;;;;9.57;1.98;;;;;;;6.77;73.99;99731.34;5108376;28;20834;-54
2021/05/22 03:05:22;;;;;;;8.18;2.22;;;;;;;6.73;73.92;99739.47;5081616;28;20079;-54
2021/05/22 03:07:49;;;;;;;6.03;1.40;;;;;;;6.72;74.07;99740.63;5106220;28;20070;-56
2021/05/22 03:10:16;;;;;;;6.35;1.45;;;;;;;6.69;74.03;99731.13;5113197;28;20457;-54
2021/05/22 03:12:44;;;;;;;4.43;1.77;;;;;;;6.69;74.22;99738.56;5103110;28;20143;-56
2021/05/22 03:15:11;;;;;;;7.15;1.42;;;;;;;6.63;74.43;99740.75;5080802;28;20072;-52
2021/05/22 03:17:38;;;;;;;7.43;1.98;;;;;;;6.63;74.43;99749.00;5098229;28;20063;-56
2021/05/22 03:20:06;;;;;;;4.38;1.52;;;;;;;6.59;74.67;99753.56;5103705;28;20036;-55
2021/05/22 03:22:33;;;;;;;5.93;1.50;;;;;;;6.56;74.34;99757.00;5094820;28;20118;-56
2021/05/22 03:25:00;;;;;;;6.93;1.70;;;;;;;6.53;74.45;99765.13;5083148;28;20562;-55
2021/05/22 03:27:27;;;;;;;9.75;1.63;;;;;;;6.49;74.54;99765.00;5085657;28;20378;-53
2021/05/22 03:29:54;;;;;;;7.35;1.45;;;;;;;6.46;74.65;99765.69;5112927;28;20393;-55
2021/05/22 03:32:21;;;;;;;3.78;1.42;;;;;;;6.45;74.77;99757.78;5110279;28;20054;-56
2021/05/22 03:34:48;;;;;;;6.15;1.48;;;;;;;6.41;75.05;99754.91;5111175;28;20082;-57
2021/05/22 03:37:15;;;;;;;4.68;1.30;;;;;;;6.40;75.13;99766.25;5102703;28;20155;-59
2021/05/22 03:39:42;;;;;;;6.72;1.50;;;;;;;6.33;75.01;99769.56;5104654;28;20047;-53
2021/05/22 03:42:09;;;;;;;5.40;1.30;;;;;;;6.34;75.07;99767.63;5113912;28;20122;-54
2021/05/22 03:44:35;;;;;;;14.88;2.35;;;;;;;6.30;75.39;99778.47;5077444;28;20048;-56
2021/05/22 03:47:02;;;;;;;5.00;1.13;;;;;;;6.28;75.28;99769.78;5081167;28;20413;-58
2021/05/22 03:49:29;;;;;;;4.82;1.20;;;;;;;6.30;75.00;99778.47;5098796;28;20066;-56
2021/05/22 03:51:56;;;;;;;10.80;1.30;;;;;;;6.33;74.64;99777.81;5112125;28;20074;-55
2021/05/22 03:54:23;;;;;;;6.93;1.33;;;;;;;6.25;74.98;99784.19;5097207;28;20130;-55
2021/05/22 03:56:50;;;;;;;15.02;4.30;;;;;;;6.24;74.95;99779.88;5097040;28;20480;-56
2021/05/22 03:59:17;;;;;;;5.03;0.90;;;;;;;6.22;75.27;99771.16;5092317;28;20159;-56
2021/05/22 04:01:43;;;;;;;3.65;1.38;;;;;;;6.20;74.92;99789.91;5092799;28;20131;-55
2021/05/22 04:04:11;;;;;;;8.32;1.33;;;;;;;6.14;75.37;99783.81;5106126;28;20058;-53
2021/05/22 04:06:38;;;;;;;5.15;1.13;;;;;;;6.17;75.03;99796.09;5108683;28;20082;-54
2021/05/22 04:09:05;;;;;;;5.75;1.92;;;;;;;6.04;75.37;99791.69;5071568;28;20556;-55
2021/05/22 04:11:32;;;;;;;5.97;1.58;;;;;;;6.02;75.55;99793.97;5085331;28;20481;-56
2021/05/22 04:13:59;;;;;;;12.32;4.32;;;;;;;6.01;75.38;99797.88;5103920;28;20093;-56
2021/05/22 04:16:26;;;;;;;5.10;1.27;;;;;;;5.98;75.45;99796.59;5103486;28;20048;-55
2021/05/22 04:18:55;;;;;;;3.60;1.50;;;;;;;5.97;75.78;99797.75;5050751;28;20058;-56
2021/05/22 04:21:22;;;;;;;9.25;1.90;;;;;;;5.97;75.72;99807.94;5062403;28;20142;-54
2021/05/22 04:23:49;;;;;;;5.55;1.58;;;;;;;6.00;75.66;99807.25;5109960;28;20044;-56
2021/05/22 04:26:16;;;;;;;7.35;1.05;;;;;;;5.98;75.40;99810.31;5106125;28;20047;-57
2021/05/22 04:28:43;;;;;;;6.07;1.13;;;;;;;5.94;75.50;99805.84;5090657;28;20490;-54
2021/05/22 04:31:09;;;;;;;4.30;1.17;;;;;;;5.93;75.87;99812.50;5099470;28;20075;-57
2021/05/22 04:33:36;;;;;;;5.10;1.10;;;;;;;5.93;75.74;99815.25;5089007;28;20489;-56
2021/05/22 04:36:04;;;;;;;6.88;1.58;;;;;;;5.84;75.66;99818.03;5089586;28;20514;-56
2021/05/22 04:38:32;;;;;;;5.63;1.52;;;;;;;5.85;75.82;99824.38;5084352;28;20051;-55
2021/05/22 04:41:00;;;;;;;8.07;2.70;;;;;;;5.86;75.57;99817.72;5103593;28;20449;-56
2021/05/22 04:43:27;;;;;;;7.65;1.33;;;;;;;5.79;75.90;99831.16;5092591;28;20081;-61
2021/05/22 04:45:54;;;;;;;5.50;1.30;;;;;;;5.81;75.93;99828.88;5086896;28;20358;-52
2021/05/22 04:48:24;;;;;;;5.38;1.38;;;;;;;5.84;75.54;99822.72;5096909;28;20362;-58
2021/05/22 04:50:55;;;;;;;6.53;2.03;;;;;;;5.88;75.38;99823.66;5090857;28;20055;-51
2021/05/22 04:53:23;;;;;;;7.13;1.50;;;;;;;5.87;75.55;99835.81;5108895;28;20047;-57
2021/05/22 04:55:50;;;;;;;4.15;1.20;;;;;;;5.83;76.00;99846.63;5069938;28;20134;-54
2021/05/22 04:58:17;;;;;;;5.25;1.20;;;;;;;5.78;75.92;99843.28;5104022;28;20124;-56
2021/05/22 05:00:44;;;;;;;1.83;0.82;;;;;;;5.74;76.13;99845.91;5108372;28;20071;-54
2021/05/22 05:03:10;;;;;;;5.72;1.10;;;;;;;5.78;75.81;99844.09;5100971;28;20093;-58
2021/05/22 05:05:37;;;;;;;7.10;2.05;;;;;;;5.85;75.50;99835.34;5109458;28;20203;-55
2021/05/22 05:08:05;;;;;;;6.00;2.05;;;;;;;5.87;75.71;99841.31;5096222;28;20050;-56
2021/05/22 05:10:31;;;;;;;3.40;0.90;;;;;;;5.81;75.90;99845.34;5097479;28;20525;-55
2021/05/22 05:12:58;;;;;;;7.03;1.63;;;;;;;5.80;75.78;99857.50;5100934;28;20044;-55
2021/05/22 05:15:25;;;;;;;3.80;1.30;;;;;;;5.78;75.84;99846.03;5089906;28;21557;-56
2021/05/22 05:17:52;;;;;;;3.88;1.63;;;;;;;5.78;75.94;99843.28;5103017;28;20097;-56
2021/05/22 05:20:19;;;;;;;4.03;1.25;;;;;;;5.82;75.73;99855.22;5077131;28;20040;-56
2021/05/22 05:22:50;;;;;;;5.13;1.27;;;;;;;5.86;75.58;99845.19;5106639;28;20134;-57
2021/05/22 05:25:17;;;;;;;4.17;1.83;;;;;;;5.88;75.82;99840.16;5107472;28;20090;-57
2021/05/22 05:27:44;;;;;;;5.25;1.20;;;;;;;5.92;75.56;99843.84;5061936;28;20293;-57
2021/05/22 05:30:11;;;;;;;9.13;2.45;;;;;;;5.93;75.52;99854.50;5050444;28;20379;-55
2021/05/22 05:32:38;;;;;;;4.35;1.00;;;;;;;5.96;75.77;99855.75;5090272;28;20071;-56
2021/05/22 05:35:05;;;;;;;5.32;1.08;;;;;;;5.96;75.60;99853.00;5086974;28;20455;-56
2021/05/22 05:37:32;;;;;;;7.07;0.98;;;;;;;6.01;75.62;99861.09;5075686;28;20047;-55
2021/05/22 05:39:59;;;;;;;9.48;1.73;;;;;;;6.03;75.68;99861.53;5088325;28;20074;-57
2021/05/22 05:42:26;;;;;;;6.68;2.75;;;;;;;6.11;75.41;99874.41;5088882;28;20779;-55
2021/05/22 05:44:53;;;;;;;3.92;1.02;;;;;;;6.14;75.53;99870.97;5108052;28;20083;-55
2021/05/22 05:47:20;;;;;;;4.65;1.10;;;;;;;6.17;75.61;99866.75;5107071;28;20560;-54
2021/05/22 05:49:46;;;;;;;4.80;1.30;;;;;;;6.18;75.10;99873.84;5104116;28;20035;-56
2021/05/22 05:52:13;;;;;;;8.52;1.13;;;;;;;6.18;75.48;99869.16;5106068;28;20052;-54
2021/05/22 05:54:40;;;;;;;9.40;1.65;;;;;;;6.16;75.26;99876.94;5104544;28;20104;-55
2021/05/22 05:57:07;;;;;;;5.53;0.68;;;;;;;6.17;75.44;99873.03;5075606;28;20067;-54
2021/05/22 05:59:34;;;;;;;4.53;0.90;;;;;;;6.22;75.21;99878.34;5083479;28;20086;-52
2021/05/22 06:02:00;;;;;;;3.30;0.90;;;;;;;6.23;75.26;99871.69;5085592;28;20040;-58
2021/05/22 06:04:27;;;;;;;2.40;1.13;;;;;;;6.29;75.63;99875.03;5079617;28;20047;-60
2021/05/22 06:06:54;;;;;;;7.50;1.73;;;;;;;6.32;74.96;99874.38;5105545;28;20082;-59
2021/05/22 06:09:21;;;;;;;6.13;1.17;;;;;;;6.37;74.93;99871.41;5089415;28;20661;-57
2021/05/22 06:11:48;;;;;;;6.57;0.95;;;;;;;6.39;75.14;99874.63;5071633;28;20044;-54
2021/05/22 06:14:19;;;;;;;1.83;0.93;;;;;;;6.37;75.16;99877.72;5082470;28;20048;-57
2021/05/22 06:16:49;;;;;;;3.28;0.70;;;;;;;6.37;75.08;99883.22;5102250;28;20047;-55
2021/05/22 06:19:16;;;;;;;4.75;0.88;;;;;;;6.39;74.79;99885.59;5092768;28;20140;-53
2021/05/22 06:21:45;;;;;;;2.65;1.15;;;;;;;6.42;75.15;99876.69;5092808;28;20044;-56
2021/05/22 06:24:12;;;;;;;3.53;1.20;;;;;;;6.47;74.89;99893.78;5087041;28;20433;-56
2021/05/22 06:26:39;;;;;;;3.42;1.15;;;;;;;6.55;74.85;99890.16;5102707;28;20123;-56
2021/05/22 06:29:06;;;;;;;4.00;1.45;;;;;;;6.60;74.81;99887.19;5066738;28;20064;-57
2021/05/22 06:31:33;;;;;;;8.20;1.60;;;;;;;6.67;74.87;99898.41;5093522;28;20047;-58
2021/05/22 06:34:00;;;;;;;8.23;2.63;;;;;;;6.70;74.99;99900.50;5109973;28;20082;-55
2021/05/22 06:36:28;;;;;;;7.32;1.15;;;;;;;6.77;74.61;99907.38;5112169;28;20043;-55
2021/05/22 06:38:55;;;;;;;4.88;1.15;;;;;;;6.76;74.65;99914.84;5112188;28;20130;-56
2021/05/22 06:41:25;;;;;;;4.32;1.15;;;;;;;6.80;74.74;99912.22;5096496;28;20094;-56
2021/05/22 06:43:52;;;;;;;6.93;1.20;;;;;;;6.83;74.62;99933.56;5106286;28;20044;-56
2021/05/22 06:48:45;;;;;;;4.40;1.38;;;;;;;6.90;74.51;99922.78;5092304;28;20083;-56
2021/05/22 06:51:12;;;;;;;6.47;1.92;;;;;;;6.95;74.32;99925.31;5103664;28;20079;-57
2021/05/22 06:53:39;;;;;;;6.53;1.42;;;;;;;6.99;74.03;99929.78;5103381;28;20079;-56
2021/05/22 06:56:06;;;;;;;3.53;1.05;;;;;;;7.02;74.27;99925.53;5101625;28;20048;-57
2021/05/22 06:58:33;;;;;;;9.38;1.70;;;;;;;7.04;73.88;99932.31;5092375;28;20052;-57
2021/05/22 07:01:02;;;;;;;5.82;1.02;;;;;;;7.07;74.03;99933.59;5091159;28;20101;-55
2021/05/22 07:03:31;;;;;;;4.88;1.00;;;;;;;7.16;74.11;99937.84;5083641;28;20051;-54
2021/05/22 07:06:00;;;;;;;6.05;1.60;;;;;;;7.25;74.05;99933.03;5071139;28;20733;-55
2021/05/22 07:08:27;;;;;;;4.75;0.73;;;;;;;7.37;73.80;99935.00;5086077;28;20122;-56
2021/05/22 07:10:55;;;;;;;4.07;1.25;;;;;;;7.47;73.83;99936.50;5109294;28;20067;-62
2021/05/22 07:13:23;;;;;;;4.88;0.90;;;;;;;7.51;73.72;99943.75;5100021;28;20684;-57
2021/05/22 07:15:50;;;;;;;5.82;1.17;;;;;;;7.60;73.70;99954.66;5091694;28;20067;-57
2021/05/22 07:18:17;;;;;;;4.18;1.00;;;;;;;7.71;73.82;99948.31;5085210;28;20094;-56
2021/05/22 07:20:44;;;;;;;5.50;1.23;;;;;;;7.81;74.29;99947.84;5092648;28;20044;-56
2021/05/22 07:23:11;;;;;;;5.18;1.02;;;;;;;7.91;74.26;99949.34;5090822;28;20077;-57
2021/05/22 07:25:38;;;;;;;2.63;0.93;;;;;;;8.01;74.59;99959.06;5097049;28;20047;-56
2021/05/22 07:28:07;;;;;;;2.92;1.25;;;;;;;8.06;74.47;99958.84;5109975;28;20097;-57
2021/05/22 07:30:34;;;;;;;7.53;2.75;;;;;;;8.14;74.59;99961.47;5085163;28;20048;-54
2021/05/22 07:33:01;;;;;;;4.95;1.05;;;;;;;8.26;75.66;99955.91;5108449;28;20043;-57
2021/05/22 07:35:28;;;;;;;7.60;1.00;;;;;;;8.40;75.70;99964.66;5106365;28;20100;-59
2021/05/22 07:37:54;;;;;;;5.25;0.98;;;;;;;8.56;76.04;99967.47;5107155;28;20075;-57
2021/05/22 07:40:22;;;;;;;5.43;0.90;;;;;;;8.78;76.01;99969.69;5071019;28;20517;-58
2021/05/22 07:42:50;;;;;;;3.13;0.85;;;;;;;8.99;77.27;99969.47;5090148;28;20040;-58
2021/05/22 07:45:18;;;;;;;5.43;1.25;;;;;;;9.18;77.89;99973.16;5086418;28;20040;-57
2021/05/22 07:47:46;;;;;;;10.05;1.63;;;;;;;9.43;78.98;99978.50;5089790;28;20109;-58
2021/05/22 07:50:14;;;;;;;6.85;0.90;;;;;;;9.82;79.20;99966.47;5089187;28;20071;-60
2021/05/22 07:52:41;;;;;;;5.85;1.00;;;;;;;10.25;78.10;99977.34;5076866;28;20055;-58
2021/05/22 07:55:11;;;;;;;4.63;1.20;;;;;;;10.75;76.69;99978.41;5071141;28;20045;-58
2021/05/22 07:57:37;;;;;;;3.03;1.48;;;;;;;11.29;75.22;99981.84;5093918;28;20033;-60
2021/05/22 08:00:08;;;;;;;7.75;1.77;;;;;;;11.80;71.27;99976.00;5110412;28;20047;-58
2021/05/22 08:02:37;;;;;;;4.57;1.50;;;;;;;12.35;70.17;99989.13;5092550;28;20036;-62
2021/05/22 08:05:08;;;;;;;3.63;1.98;;;;;;;12.97;64.79;99989.53;5110443;28;20051;-58
2021/05/22 08:07:35;;;;;;;4.22;1.67;;;;;;;13.44;65.84;99995.22;5093381;28;20127;-61
2021/05/22 08:10:04;;;;;;;4.30;0.80;;;;;;;13.97;62.95;100002.03;5082924;28;20126;-59
2021/05/22 08:12:31;;;;;;;4.30;1.63;;;;;;;14.32;60.37;99995.16;5055653;28;20104;-60
2021/05/22 08:14:58;;;;;;;5.60;1.25;;;;;;;14.50;58.25;99996.06;5089072;28;20036;-59
2021/05/22 08:17:25;;;;;;;3.47;1.08;;;;;;;14.96;56.97;100005.41;5090813;28;20040;-60
2021/05/22 08:19:52;;;;;;;14.60;1.92;;;;;;;15.49;56.11;100002.03;5090420;28;20460;-58
2021/05/22 08:22:21;;;;;;;6.25;1.13;;;;;;;15.68;55.06;100004.41;5096132;28;20048;-58
2021/05/22 08:24:49;;;;;;;2.40;1.02;;;;;;;15.67;53.67;100005.63;5109848;28;20066;-61
2021/05/22 08:27:19;;;;;;;4.13;0.85;;;;;;;15.73;52.75;100001.22;5085513;28;20044;-61
2021/05/22 08:29:55;;;;;;;2.78;0.80;;;;;;;15.67;51.92;100014.78;5098381;28;20074;-60
2021/05/22 08:32:27;;;;;;;2.53;0.85;;;;;;;15.57;50.93;100004.41;5098130;28;20062;-57
2021/05/22 08:34:55;;;;;;;6.22;1.30;;;;;;;15.62;50.00;100012.38;5093404;28;20134;-58
2021/05/22 08:37:23;;;;;;;5.50;1.67;;;;;;;15.82;49.56;100021.19;5074695;28;20072;-61
2021/05/22 08:39:53;;;;;;;3.75;1.20;;;;;;;15.62;49.45;100011.59;5055827;28;20571;-60
2021/05/22 08:42:23;;;;;;;2.85;1.08;;;;;;;15.55;49.15;100022.75;5097219;28;20519;-58
2021/05/22 08:44:50;;;;;;;3.55;0.75;;;;;;;15.63;49.41;100008.41;5072023;28;20390;-61
2021/05/22 08:47:21;;;;;;;3.27;0.50;;;;;;;16.00;49.54;100010.00;5085003;28;20105;-57
2021/05/22 08:49:48;;;;;;;5.38;0.65;;;;;;;16.29;49.04;100012.38;5094855;28;20048;-61
2021/05/22 08:52:20;;;;;;;3.67;1.05;;;;;;;15.66;47.34;100020.75;5107960;28;20051;-64
2021/05/22 08:54:47;;;;;;;2.80;1.30;;;;;;;15.09;48.36;100017.81;5109683;28;20051;-57
2021/05/22 08:57:15;;;;;;;3.72;0.90;;;;;;;14.75;48.43;100019.25;5094326;28;20097;-57
2021/05/22 08:59:46;;;;;;;5.95;1.00;;;;;;;14.91;48.37;100016.13;5095885;28;20109;-57
2021/05/22 09:02:19;;;;;;;5.15;2.08;;;;;;;14.99;47.91;100021.34;5087546;28;20048;-59
2021/05/22 09:05:05;;;;;;;5.10;0.70;;;;;;;14.79;47.43;100025.66;5085558;28;20101;-58
2021/05/22 09:07:35;;;;;;;4.75;0.85;;;;;;;15.03;47.85;100030.56;5086771;28;20097;-62
2021/05/22 09:10:09;;;;;;;5.15;0.77;;;;;;;15.47;47.38;100026.72;5088810;28;20100;-55
2021/05/22 09:12:42;;;;;;;1.80;0.68;;;;;;;15.83;46.86;100034.72;5092715;28;20386;-57
2021/05/22 09:15:12;;;;;;;4.00;0.57;;;;;;;16.02;46.46;100030.75;5088478;28;20101;-58
2021/05/22 09:18:05;;;;;;;3.58;1.98;;;;;;;16.03;45.93;100029.56;5082391;28;20461;-58
2021/05/22 09:20:45;;;;;;;2.38;0.65;;;;;;;16.02;45.61;100041.16;5097050;28;20432;-59
2021/05/22 09:23:18;;;;;;;2.83;1.80;;;;;;;16.06;45.64;100039.94;5070864;28;20054;-59
2021/05/22 09:25:48;;;;;;;2.08;0.73;;;;;;;15.60;45.47;100053.03;5088907;28;20500;-59
2021/05/22 09:28:21;;;;;;;1.73;0.90;;;;;;;14.95;44.04;100042.84;5073187;28;20075;-59
2021/05/22 09:30:51;;;;;;;6.50;0.80;;;;;;;14.78;46.28;100046.34;5088588;28;20036;-60
2021/05/22 09:33:21;;;;;;;3.35;0.77;;;;;;;14.87;46.48;100055.16;5088871;28;20131;-59
2021/05/22 09:35:51;;;;;;;2.67;0.70;;;;;;;14.58;46.88;100058.97;5089632;28;20059;-57
2021/05/22 09:38:18;;;;;;;4.00;0.50;;;;;;;13.95;47.20;100059.28;5108239;28;20142;-59
2021/05/22 09:40:45;;;;;;;5.40;0.80;;;;;;;13.80;47.81;100063.91;5101640;28;20778;-59
2021/05/22 09:43:13;;;;;;;3.28;0.57;;;;;;;14.07;47.65;100056.19;5088039;28;20047;-59
2021/05/22 09:45:44;;;;;;;7.75;0.80;;;;;;;14.35;47.67;100055.66;5088795;28;20550;-59
2021/05/22 09:48:14;;;;;;;2.47;0.73;;;;;;;14.78;47.38;100057.50;5053035;28;20055;-60
2021/05/22 09:50:46;;;;;;;3.88;0.57;;;;;;;15.51;47.34;100059.03;5088202;28;20046;-60
2021/05/22 09:53:34;;;;;;;4.35;0.68;;;;;;;15.90;45.73;100059.06;5068232;28;20463;-60
2021/05/22 09:56:27;;;;;;;3.42;0.60;;;;;;;15.99;45.91;100058.69;5075498;28;20724;-61
2021/05/22 09:58:58;;;;;;;2.03;0.57;;;;;;;16.19;45.48;100057.88;5087516;28;20791;-60
2021/05/22 10:01:32;;;;;;;1.33;0.43;;;;;;;16.74;45.39;100060.22;5089274;28;20044;-59
2021/05/22 10:04:18;;;;;;;5.82;2.55;;;;;;;17.33;43.70;100052.81;5089092;28;20063;-60
2021/05/22 10:06:45;;;;;;;5.85;1.95;;;;;;;17.79;44.78;100056.16;5089399;28;20072;-60
2021/05/22 10:09:15;;;;;;;2.63;1.25;;;;;;;17.91;43.96;100063.28;5075910;28;20094;-60
2021/05/22 10:12:09;;;;;;;3.65;0.70;;;;;;;16.93;42.23;100062.56;5069378;28;20160;-59
2021/05/22 10:14:41;;;;;;;3.20;0.70;;;;;;;15.99;43.73;100067.84;5088534;28;20067;-59
2021/05/22 10:17:10;;;;;;;3.05;0.82;;;;;;;15.31;44.67;100054.13;5089761;28;20505;-60
2021/05/22 10:19:38;;;;;;;2.28;0.70;;;;;;;14.72;45.30;100064.63;5089158;28;20078;-59
2021/05/22 10:22:06;;;;;;;3.70;0.80;;;;;;;14.72;46.02;100067.41;5089491;28;20105;-59
2021/05/22 10:24:33;;;;;;;3.10;0.65;;;;;;;14.70;45.90;100072.56;5089263;28;20040;-59
2021/05/22 10:27:00;;;;;;;2.97;0.40;;;;;;;14.39;45.91;100059.25;5070037;28;20076;-59
2021/05/22 10:29:32;;;;;;;3.70;0.50;;;;;;;14.11;46.22;100068.13;5055695;28;20048;-59
2021/05/22 10:32:00;;;;;;;2.53;0.40;;;;;;;13.90;46.72;100079.09;5088854;28;20044;-60
2021/05/22 10:34:28;;;;;;;1.20;0.38;;;;;;;13.66;47.18;100069.31;5089318;28;20044;-60
2021/05/22 10:36:57;;;;;;;2.50;0.50;;;;;;;13.67;47.55;100076.50;5088911;28;20093;-58
2021/05/22 10:39:45;;;;;;;1.05;0.30;;;;;;;13.91;47.51;100075.94;5089126;28;20094;-60
2021/05/22 10:42:20;;;;;;;1.73;0.25;;;;;;;14.03;46.58;100072.84;5084565;28;20044;-59
2021/05/22 10:44:47;;;;;;;2.53;0.52;;;;;;;14.02;47.31;100076.84;5069607;28;20127;-59
2021/05/22 10:47:17;;;;;;;2.63;0.93;;;;;;;13.80;47.51;100075.03;5081947;28;20036;-59
2021/05/22 10:49:52;;;;;;;5.30;0.82;;;;;;;13.54;48.18;100086.28;5087298;28;20075;-60
2021/05/22 10:52:22;;;;;;;2.58;0.50;;;;;;;13.37;48.66;100079.34;5089305;28;20097;-57
2021/05/22 10:55:08;;;;;;;0.98;0.52;;;;;;;13.13;49.17;100085.41;5088776;28;20534;-59
2021/05/22 10:57:47;;;;;;;2.85;0.70;;;;;;;12.91;49.92;100082.72;5068918;28;20051;-59
2021/05/22 11:00:14;;;;;;;1.77;0.60;;;;;;;12.95;49.82;100089.09;5070007;28;20094;-59
2021/05/22 11:02:44;;;;;;;3.20;0.40;;;;;;;13.15;49.77;100087.81;5068638;28;20154;-60
2021/05/22 11:05:21;;;;;;;2.10;0.95;;;;;;;13.53;48.86;100092.25;5068583;28;20470;-59
2021/05/22 11:08:09;;;;;;;2.58;0.93;;;;;;;13.87;48.69;100089.00;5078687;28;20047;-59
2021/05/22 11:10:35;;;;;;;3.40;0.50;;;;;;;13.77;48.40;100089.69;5089241;28;20101;-58
2021/05/22 11:13:04;;;;;;;0.90;0.70;;;;;;;13.65;48.88;100092.78;5088092;28;20044;-58
2021/05/22 11:16:06;;;;;;;1.58;0.65;;;;;;;13.52;48.68;100094.22;5089562;28;20722;-61
2021/05/22 11:18:33;;;;;;;2.13;0.80;;;;;;;13.39;49.04;100090.91;5044520;28;20078;-61
2021/05/22 11:21:11;;;;;;;0.60;0.40;;;;;;;13.32;48.52;100090.00;5092267;28;20339;-61
2021/05/22 11:23:57;;;;;;;1.13;0.73;;;;;;;13.28;47.88;100086.38;5073770;28;20056;-61
2021/05/22 11:26:43;;;;;;;1.35;0.40;;;;;;;13.47;48.32;100091.78;5072291;28;20115;-61
2021/05/22 11:29:09;;;;;;;2.13;0.47;;;;;;;13.66;48.15;100108.25;5072769;28;20444;-61
2021/05/22 11:31:36;;;;;;;2.90;0.90;;;;;;;13.87;48.19;100097.34;5080545;28;20046;-61
2021/05/22 11:34:22;;;;;;;0.73;0.40;;;;;;;14.16;46.51;100108.75;5080466;28;20048;-61
2021/05/22 11:37:07;;;;;;;2.25;0.40;;;;;;;14.32;45.41;100106.53;5072136;28;20041;-62
2021/05/22 11:39:46;;;;;;;6.45;1.38;;;;;;;14.38;46.61;100105.78;5070921;28;20044;-60
2021/05/22 11:42:33;;;;;;;3.53;0.77;;;;;;;14.41;46.33;100110.59;5076848;28;20075;-59
2021/05/22 11:45:02;;;;;;;2.53;0.30;;;;;;;14.39;47.09;100106.59;5074454;28;20047;-60
2021/05/22 11:47:38;;;;;;;1.60;0.50;;;;;;;14.32;47.28;100100.97;5093357;28;20052;-61
2021/05/22 11:50:22;;;;;;;3.55;0.73;;;;;;;14.22;47.39;100101.63;5089155;28;20079;-59